sensor_id;sensor_type;location;lat;lon;timestamp;P1;durP1;ratioP1;P2;durP2;ratioP2
65230;SDS011;51813;40.666;16.602;2023-03-14T00:00:34;2.42;;;1.20;;
65230;SDS011;51813;40.666;16.602;2023-03-14T00:02:59;1.80;;;1.00;;
65230;SDS011;51813;40.666;16.602;2023-03-14T00:05:25;2.10;;;1.17;;
65230;SDS011;51813;40.666;16.602;2023-03-14T00:07:51;2.00;;;1.17;;
65230;SDS011;51813;40.666;16.602;2023-03-14T00:10:16;2.10;;;1.10;;
65230;SDS011;51813;40.666;16.602;2023-03-14T00:12:42;1.40;;;0.80;;
65230;SDS011;51813;40.666;16.602;2023-03-14T00:15:09;1.85;;;1.10;;
65230;SDS011;51813;40.666;16.602;2023-03-14T00:17:35;1.98;;;1.10;;
65230;SDS011;51813;40.666;16.602;2023-03-14T00:20:02;2.38;;;1.10;;
65230;SDS011;51813;40.666;16.602;2023-03-14T00:22:33;1.55;;;1.00;;
65230;SDS011;51813;40.666;16.602;2023-03-14T00:25:00;2.03;;;0.90;;
65230;SDS011;51813;40.666;16.602;2023-03-14T00:27:26;2.60;;;1.20;;
65230;SDS011;51813;40.666;16.602;2023-03-14T00:29:51;2.03;;;1.15;;
65230;SDS011;51813;40.666;16.602;2023-03-14T00:32:17;2.20;;;1.10;;
65230;SDS011;51813;40.666;16.602;2023-03-14T00:34:43;2.28;;;1.30;;
65230;SDS011;51813;40.666;16.602;2023-03-14T00:37:08;1.77;;;0.90;;
65230;SDS011;51813;40.666;16.602;2023-03-14T00:39:34;2.83;;;1.20;;
65230;SDS011;51813;40.666;16.602;2023-03-14T00:42:00;1.63;;;0.90;;
65230;SDS011;51813;40.666;16.602;2023-03-14T00:44:25;2.35;;;1.25;;
65230;SDS011;51813;40.666;16.602;2023-03-14T00:46:51;1.90;;;1.00;;
65230;SDS011;51813;40.666;16.602;2023-03-14T00:49:17;3.45;;;1.15;;
65230;SDS011;51813;40.666;16.602;2023-03-14T00:51:42;1.95;;;0.90;;
65230;SDS011;51813;40.666;16.602;2023-03-14T00:54:08;2.47;;;1.10;;
65230;SDS011;51813;40.666;16.602;2023-03-14T00:56:33;1.67;;;1.00;;
65230;SDS011;51813;40.666;16.602;2023-03-14T00:58:59;2.28;;;1.10;;
65230;SDS011;51813;40.666;16.602;2023-03-14T01:01:25;1.63;;;1.00;;
65230;SDS011;51813;40.666;16.602;2023-03-14T01:03:51;2.00;;;1.30;;
65230;SDS011;51813;40.666;16.602;2023-03-14T01:06:22;2.85;;;1.10;;
65230;SDS011;51813;40.666;16.602;2023-03-14T01:08:50;1.88;;;1.05;;
65230;SDS011;51813;40.666;16.602;2023-03-14T01:11:17;3.10;;;1.05;;
65230;SDS011;51813;40.666;16.602;2023-03-14T01:13:44;2.88;;;1.30;;
65230;SDS011;51813;40.666;16.602;2023-03-14T01:16:11;1.80;;;1.00;;
65230;SDS011;51813;40.666;16.602;2023-03-14T01:18:38;2.03;;;1.05;;
65230;SDS011;51813;40.666;16.602;2023-03-14T01:21:17;2.05;;;1.20;;
65230;SDS011;51813;40.666;16.602;2023-03-14T01:23:46;2.17;;;1.17;;
65230;SDS011;51813;40.666;16.602;2023-03-14T01:26:13;4.10;;;1.10;;
65230;SDS011;51813;40.666;16.602;2023-03-14T01:28:41;2.40;;;1.30;;
65230;SDS011;51813;40.666;16.602;2023-03-14T01:31:08;1.65;;;0.95;;
65230;SDS011;51813;40.666;16.602;2023-03-14T01:33:35;2.45;;;1.13;;
65230;SDS011;51813;40.666;16.602;2023-03-14T01:36:01;2.63;;;1.00;;
65230;SDS011;51813;40.666;16.602;2023-03-14T01:38:31;1.65;;;0.85;;
65230;SDS011;51813;40.666;16.602;2023-03-14T01:40:58;2.30;;;1.20;;
65230;SDS011;51813;40.666;16.602;2023-03-14T01:43:24;2.38;;;1.20;;
65230;SDS011;51813;40.666;16.602;2023-03-14T01:48:54;2.35;;;1.27;;
65230;SDS011;51813;40.666;16.602;2023-03-14T01:51:31;2.70;;;1.17;;
65230;SDS011;51813;40.666;16.602;2023-03-14T01:53:59;2.28;;;1.13;;
65230;SDS011;51813;40.666;16.602;2023-03-14T01:56:55;2.28;;;1.00;;
65230;SDS011;51813;40.666;16.602;2023-03-14T01:59:29;2.22;;;1.20;;
65230;SDS011;51813;40.666;16.602;2023-03-14T02:01:56;2.17;;;1.10;;
65230;SDS011;51813;40.666;16.602;2023-03-14T02:04:23;2.20;;;1.15;;
65230;SDS011;51813;40.666;16.602;2023-03-14T02:07:17;1.95;;;1.10;;
65230;SDS011;51813;40.666;16.602;2023-03-14T02:12:13;2.17;;;1.10;;
65230;SDS011;51813;40.666;16.602;2023-03-14T02:14:41;2.53;;;1.20;;
65230;SDS011;51813;40.666;16.602;2023-03-14T02:17:12;2.13;;;1.05;;
65230;SDS011;51813;40.666;16.602;2023-03-14T02:22:21;2.40;;;1.10;;
65230;SDS011;51813;40.666;16.602;2023-03-14T02:27:33;2.67;;;0.93;;
65230;SDS011;51813;40.666;16.602;2023-03-14T02:30:01;2.28;;;1.15;;
65230;SDS011;51813;40.666;16.602;2023-03-14T02:32:35;2.35;;;1.25;;
65230;SDS011;51813;40.666;16.602;2023-03-14T02:35:06;2.03;;;1.10;;
65230;SDS011;51813;40.666;16.602;2023-03-14T02:37:45;2.53;;;1.02;;
65230;SDS011;51813;40.666;16.602;2023-03-14T02:40:18;2.00;;;1.13;;
65230;SDS011;51813;40.666;16.602;2023-03-14T02:42:44;3.03;;;1.20;;
65230;SDS011;51813;40.666;16.602;2023-03-14T02:47:39;2.50;;;1.20;;
65230;SDS011;51813;40.666;16.602;2023-03-14T02:50:10;2.08;;;1.10;;
65230;SDS011;51813;40.666;16.602;2023-03-14T02:52:40;2.20;;;1.20;;
65230;SDS011;51813;40.666;16.602;2023-03-14T02:55:06;2.33;;;1.20;;
65230;SDS011;51813;40.666;16.602;2023-03-14T02:57:32;2.22;;;1.10;;
65230;SDS011;51813;40.666;16.602;2023-03-14T02:59:58;3.53;;;1.27;;
65230;SDS011;51813;40.666;16.602;2023-03-14T03:02:25;2.50;;;1.10;;
65230;SDS011;51813;40.666;16.602;2023-03-14T03:04:51;2.47;;;1.30;;
65230;SDS011;51813;40.666;16.602;2023-03-14T03:07:16;2.80;;;1.27;;
65230;SDS011;51813;40.666;16.602;2023-03-14T03:09:42;3.50;;;1.50;;
65230;SDS011;51813;40.666;16.602;2023-03-14T03:12:08;2.53;;;1.10;;
65230;SDS011;51813;40.666;16.602;2023-03-14T03:14:33;2.63;;;1.38;;
65230;SDS011;51813;40.666;16.602;2023-03-14T03:16:59;2.08;;;1.10;;
65230;SDS011;51813;40.666;16.602;2023-03-14T03:19:25;2.63;;;1.30;;
65230;SDS011;51813;40.666;16.602;2023-03-14T03:21:50;2.35;;;1.20;;
65230;SDS011;51813;40.666;16.602;2023-03-14T03:24:16;2.60;;;1.48;;
65230;SDS011;51813;40.666;16.602;2023-03-14T03:26:42;3.33;;;1.60;;
65230;SDS011;51813;40.666;16.602;2023-03-14T03:29:07;2.40;;;1.40;;
65230;SDS011;51813;40.666;16.602;2023-03-14T03:31:33;3.13;;;1.33;;
65230;SDS011;51813;40.666;16.602;2023-03-14T03:34:01;2.65;;;1.38;;
65230;SDS011;51813;40.666;16.602;2023-03-14T03:36:27;2.97;;;1.50;;
65230;SDS011;51813;40.666;16.602;2023-03-14T03:38:53;2.80;;;1.50;;
65230;SDS011;51813;40.666;16.602;2023-03-14T03:41:18;3.03;;;1.58;;
65230;SDS011;51813;40.666;16.602;2023-03-14T03:43:44;2.80;;;1.60;;
65230;SDS011;51813;40.666;16.602;2023-03-14T03:46:10;3.75;;;1.70;;
65230;SDS011;51813;40.666;16.602;2023-03-14T03:48:35;2.47;;;1.40;;
65230;SDS011;51813;40.666;16.602;2023-03-14T03:51:01;2.50;;;1.50;;
65230;SDS011;51813;40.666;16.602;2023-03-14T03:53:27;2.88;;;1.40;;
65230;SDS011;51813;40.666;16.602;2023-03-14T03:55:53;2.80;;;1.48;;
65230;SDS011;51813;40.666;16.602;2023-03-14T03:58:19;3.00;;;1.40;;
65230;SDS011;51813;40.666;16.602;2023-03-14T04:00:44;2.42;;;1.38;;
65230;SDS011;51813;40.666;16.602;2023-03-14T04:03:10;3.47;;;1.52;;
65230;SDS011;51813;40.666;16.602;2023-03-14T04:05:36;2.97;;;1.52;;
65230;SDS011;51813;40.666;16.602;2023-03-14T04:08:01;2.60;;;1.50;;
65230;SDS011;51813;40.666;16.602;2023-03-14T04:10:27;3.20;;;1.50;;
65230;SDS011;51813;40.666;16.602;2023-03-14T04:12:53;2.20;;;1.50;;
65230;SDS011;51813;40.666;16.602;2023-03-14T04:15:19;3.42;;;1.70;;
65230;SDS011;51813;40.666;16.602;2023-03-14T04:17:45;3.25;;;1.90;;
65230;SDS011;51813;40.666;16.602;2023-03-14T04:20:10;2.90;;;1.42;;
65230;SDS011;51813;40.666;16.602;2023-03-14T04:22:37;2.88;;;1.65;;
65230;SDS011;51813;40.666;16.602;2023-03-14T04:25:04;2.53;;;1.35;;
65230;SDS011;51813;40.666;16.602;2023-03-14T04:27:30;3.28;;;1.70;;
65230;SDS011;51813;40.666;16.602;2023-03-14T04:29:56;2.65;;;1.75;;
65230;SDS011;51813;40.666;16.602;2023-03-14T04:32:22;3.08;;;1.60;;
65230;SDS011;51813;40.666;16.602;2023-03-14T04:34:47;3.30;;;1.92;;
65230;SDS011;51813;40.666;16.602;2023-03-14T04:37:13;2.72;;;1.55;;
65230;SDS011;51813;40.666;16.602;2023-03-14T04:39:39;3.90;;;1.70;;
65230;SDS011;51813;40.666;16.602;2023-03-14T04:42:05;2.88;;;1.65;;
65230;SDS011;51813;40.666;16.602;2023-03-14T04:44:30;2.97;;;1.70;;
65230;SDS011;51813;40.666;16.602;2023-03-14T04:46:56;4.47;;;1.75;;
65230;SDS011;51813;40.666;16.602;2023-03-14T04:49:22;3.08;;;1.73;;
65230;SDS011;51813;40.666;16.602;2023-03-14T04:51:48;3.17;;;1.55;;
65230;SDS011;51813;40.666;16.602;2023-03-14T04:54:15;2.72;;;1.63;;
65230;SDS011;51813;40.666;16.602;2023-03-14T04:56:42;3.03;;;1.90;;
65230;SDS011;51813;40.666;16.602;2023-03-14T04:59:08;4.07;;;2.30;;
65230;SDS011;51813;40.666;16.602;2023-03-14T05:01:34;3.28;;;1.80;;
65230;SDS011;51813;40.666;16.602;2023-03-14T05:04:00;2.50;;;1.55;;
65230;SDS011;51813;40.666;16.602;2023-03-14T05:06:26;3.17;;;1.70;;
65230;SDS011;51813;40.666;16.602;2023-03-14T05:08:52;3.17;;;1.98;;
65230;SDS011;51813;40.666;16.602;2023-03-14T05:11:17;2.95;;;1.80;;
65230;SDS011;51813;40.666;16.602;2023-03-14T05:13:43;3.38;;;2.05;;
65230;SDS011;51813;40.666;16.602;2023-03-14T05:16:10;3.47;;;2.10;;
65230;SDS011;51813;40.666;16.602;2023-03-14T05:18:36;2.65;;;1.77;;
65230;SDS011;51813;40.666;16.602;2023-03-14T05:21:02;3.90;;;1.75;;
65230;SDS011;51813;40.666;16.602;2023-03-14T05:23:28;3.20;;;1.70;;
65230;SDS011;51813;40.666;16.602;2023-03-14T05:25:54;3.00;;;1.80;;
65230;SDS011;51813;40.666;16.602;2023-03-14T05:28:20;3.33;;;2.00;;
65230;SDS011;51813;40.666;16.602;2023-03-14T05:30:45;3.53;;;2.13;;
65230;SDS011;51813;40.666;16.602;2023-03-14T05:33:11;2.78;;;1.80;;
65230;SDS011;51813;40.666;16.602;2023-03-14T05:35:37;3.67;;;1.70;;
65230;SDS011;51813;40.666;16.602;2023-03-14T05:38:03;2.72;;;1.77;;
65230;SDS011;51813;40.666;16.602;2023-03-14T05:40:28;3.20;;;2.00;;
65230;SDS011;51813;40.666;16.602;2023-03-14T05:42:54;3.75;;;1.77;;
65230;SDS011;51813;40.666;16.602;2023-03-14T05:45:20;4.57;;;2.10;;
65230;SDS011;51813;40.666;16.602;2023-03-14T05:47:45;4.20;;;1.77;;
65230;SDS011;51813;40.666;16.602;2023-03-14T05:50:11;2.65;;;1.80;;
65230;SDS011;51813;40.666;16.602;2023-03-14T05:52:37;2.80;;;1.65;;
65230;SDS011;51813;40.666;16.602;2023-03-14T05:55:03;2.67;;;1.75;;
65230;SDS011;51813;40.666;16.602;2023-03-14T05:57:29;3.47;;;1.95;;
65230;SDS011;51813;40.666;16.602;2023-03-14T05:59:55;2.72;;;1.60;;
65230;SDS011;51813;40.666;16.602;2023-03-14T06:02:21;4.43;;;1.77;;
65230;SDS011;51813;40.666;16.602;2023-03-14T06:04:46;2.95;;;1.70;;
65230;SDS011;51813;40.666;16.602;2023-03-14T06:07:12;3.92;;;1.70;;
65230;SDS011;51813;40.666;16.602;2023-03-14T06:09:38;2.70;;;1.60;;
65230;SDS011;51813;40.666;16.602;2023-03-14T06:12:04;3.28;;;1.80;;
65230;SDS011;51813;40.666;16.602;2023-03-14T06:14:30;2.85;;;1.65;;
65230;SDS011;51813;40.666;16.602;2023-03-14T06:16:56;3.40;;;1.75;;
65230;SDS011;51813;40.666;16.602;2023-03-14T06:19:24;2.72;;;1.60;;
65230;SDS011;51813;40.666;16.602;2023-03-14T06:21:50;3.13;;;1.95;;
65230;SDS011;51813;40.666;16.602;2023-03-14T06:24:15;3.17;;;1.60;;
65230;SDS011;51813;40.666;16.602;2023-03-14T06:26:41;3.85;;;2.13;;
65230;SDS011;51813;40.666;16.602;2023-03-14T06:29:07;2.72;;;1.70;;
65230;SDS011;51813;40.666;16.602;2023-03-14T06:31:33;3.95;;;1.77;;
65230;SDS011;51813;40.666;16.602;2023-03-14T06:33:58;3.10;;;1.80;;
65230;SDS011;51813;40.666;16.602;2023-03-14T06:36:24;3.17;;;1.80;;
65230;SDS011;51813;40.666;16.602;2023-03-14T06:38:50;4.38;;;1.80;;
65230;SDS011;51813;40.666;16.602;2023-03-14T06:41:16;3.17;;;1.90;;
65230;SDS011;51813;40.666;16.602;2023-03-14T06:43:41;3.55;;;1.83;;
65230;SDS011;51813;40.666;16.602;2023-03-14T06:46:07;2.75;;;1.60;;
65230;SDS011;51813;40.666;16.602;2023-03-14T06:48:33;3.45;;;1.60;;
65230;SDS011;51813;40.666;16.602;2023-03-14T06:50:59;3.97;;;1.50;;
65230;SDS011;51813;40.666;16.602;2023-03-14T06:53:24;2.90;;;1.90;;
65230;SDS011;51813;40.666;16.602;2023-03-14T06:55:50;2.90;;;1.70;;
65230;SDS011;51813;40.666;16.602;2023-03-14T06:58:16;3.17;;;1.80;;
65230;SDS011;51813;40.666;16.602;2023-03-14T07:00:42;3.20;;;1.80;;
65230;SDS011;51813;40.666;16.602;2023-03-14T07:03:08;3.72;;;1.60;;
65230;SDS011;51813;40.666;16.602;2023-03-14T07:05:35;3.17;;;1.98;;
65230;SDS011;51813;40.666;16.602;2023-03-14T07:08:01;2.80;;;2.00;;
65230;SDS011;51813;40.666;16.602;2023-03-14T07:10:26;2.60;;;1.48;;
65230;SDS011;51813;40.666;16.602;2023-03-14T07:12:52;3.25;;;1.70;;
65230;SDS011;51813;40.666;16.602;2023-03-14T07:15:19;3.55;;;1.90;;
65230;SDS011;51813;40.666;16.602;2023-03-14T07:17:45;2.75;;;1.63;;
65230;SDS011;51813;40.666;16.602;2023-03-14T07:20:13;3.42;;;1.70;;
65230;SDS011;51813;40.666;16.602;2023-03-14T07:22:38;3.13;;;1.70;;
65230;SDS011;51813;40.666;16.602;2023-03-14T07:25:04;2.63;;;1.50;;
65230;SDS011;51813;40.666;16.602;2023-03-14T07:27:30;3.58;;;2.05;;
65230;SDS011;51813;40.666;16.602;2023-03-14T07:29:56;3.78;;;1.58;;
65230;SDS011;51813;40.666;16.602;2023-03-14T07:32:22;2.90;;;1.70;;
65230;SDS011;51813;40.666;16.602;2023-03-14T07:34:47;3.42;;;1.63;;
65230;SDS011;51813;40.666;16.602;2023-03-14T07:37:13;3.38;;;1.75;;
65230;SDS011;51813;40.666;16.602;2023-03-14T07:39:39;3.30;;;1.63;;
65230;SDS011;51813;40.666;16.602;2023-03-14T07:42:05;3.08;;;1.77;;
65230;SDS011;51813;40.666;16.602;2023-03-14T07:44:30;3.90;;;2.00;;
65230;SDS011;51813;40.666;16.602;2023-03-14T07:46:56;2.95;;;1.58;;
65230;SDS011;51813;40.666;16.602;2023-03-14T07:49:22;3.38;;;1.80;;
65230;SDS011;51813;40.666;16.602;2023-03-14T07:51:48;3.38;;;1.40;;
65230;SDS011;51813;40.666;16.602;2023-03-14T07:54:14;3.58;;;1.60;;
65230;SDS011;51813;40.666;16.602;2023-03-14T07:56:40;3.08;;;1.60;;
65230;SDS011;51813;40.666;16.602;2023-03-14T07:59:06;2.70;;;1.40;;
65230;SDS011;51813;40.666;16.602;2023-03-14T08:01:32;3.25;;;1.60;;
65230;SDS011;51813;40.666;16.602;2023-03-14T08:03:58;3.85;;;1.83;;
65230;SDS011;51813;40.666;16.602;2023-03-14T08:06:24;2.75;;;1.50;;
65230;SDS011;51813;40.666;16.602;2023-03-14T08:08:49;2.92;;;1.70;;
65230;SDS011;51813;40.666;16.602;2023-03-14T08:11:15;3.08;;;1.90;;
65230;SDS011;51813;40.666;16.602;2023-03-14T08:13:41;3.15;;;1.85;;
65230;SDS011;51813;40.666;16.602;2023-03-14T08:16:07;3.22;;;1.70;;
65230;SDS011;51813;40.666;16.602;2023-03-14T08:18:33;5.78;;;1.98;;
65230;SDS011;51813;40.666;16.602;2023-03-14T08:20:59;2.92;;;1.60;;
65230;SDS011;51813;40.666;16.602;2023-03-14T08:23:25;4.20;;;2.35;;
65230;SDS011;51813;40.666;16.602;2023-03-14T08:25:51;3.78;;;2.10;;
65230;SDS011;51813;40.666;16.602;2023-03-14T08:28:17;7.88;;;2.28;;
65230;SDS011;51813;40.666;16.602;2023-03-14T08:30:43;4.70;;;2.53;;
65230;SDS011;51813;40.666;16.602;2023-03-14T08:33:09;5.63;;;2.65;;
65230;SDS011;51813;40.666;16.602;2023-03-14T08:35:35;4.40;;;2.35;;
65230;SDS011;51813;40.666;16.602;2023-03-14T08:38:02;4.38;;;2.33;;
65230;SDS011;51813;40.666;16.602;2023-03-14T08:40:28;5.90;;;2.67;;
65230;SDS011;51813;40.666;16.602;2023-03-14T08:42:54;4.25;;;2.28;;
65230;SDS011;51813;40.666;16.602;2023-03-14T08:45:19;4.63;;;2.50;;
65230;SDS011;51813;40.666;16.602;2023-03-14T08:47:46;3.65;;;2.70;;
65230;SDS011;51813;40.666;16.602;2023-03-14T08:50:12;4.13;;;3.08;;
65230;SDS011;51813;40.666;16.602;2023-03-14T08:52:38;4.82;;;2.90;;
65230;SDS011;51813;40.666;16.602;2023-03-14T08:55:05;3.70;;;2.60;;
65230;SDS011;51813;40.666;16.602;2023-03-14T08:57:34;5.32;;;2.97;;
65230;SDS011;51813;40.666;16.602;2023-03-14T09:00:01;4.68;;;2.83;;
65230;SDS011;51813;40.666;16.602;2023-03-14T09:02:30;5.10;;;2.92;;
65230;SDS011;51813;40.666;16.602;2023-03-14T09:04:56;5.10;;;2.78;;
65230;SDS011;51813;40.666;16.602;2023-03-14T09:07:22;3.70;;;2.63;;
65230;SDS011;51813;40.666;16.602;2023-03-14T09:09:47;4.82;;;2.80;;
65230;SDS011;51813;40.666;16.602;2023-03-14T09:12:13;6.50;;;3.17;;
65230;SDS011;51813;40.666;16.602;2023-03-14T09:14:39;4.53;;;3.10;;
65230;SDS011;51813;40.666;16.602;2023-03-14T09:17:05;6.30;;;3.00;;
65230;SDS011;51813;40.666;16.602;2023-03-14T09:19:30;4.28;;;2.40;;
65230;SDS011;51813;40.666;16.602;2023-03-14T09:21:56;5.60;;;2.83;;
65230;SDS011;51813;40.666;16.602;2023-03-14T09:24:22;4.40;;;2.47;;
65230;SDS011;51813;40.666;16.602;2023-03-14T09:26:47;5.40;;;3.00;;
65230;SDS011;51813;40.666;16.602;2023-03-14T09:29:13;5.28;;;2.75;;
65230;SDS011;51813;40.666;16.602;2023-03-14T09:31:39;5.05;;;3.15;;
65230;SDS011;51813;40.666;16.602;2023-03-14T09:34:04;6.82;;;2.85;;
65230;SDS011;51813;40.666;16.602;2023-03-14T09:36:30;5.70;;;3.25;;
65230;SDS011;51813;40.666;16.602;2023-03-14T09:38:56;5.88;;;3.40;;
65230;SDS011;51813;40.666;16.602;2023-03-14T09:41:25;5.70;;;3.53;;
65230;SDS011;51813;40.666;16.602;2023-03-14T09:44:02;5.13;;;3.00;;
65230;SDS011;51813;40.666;16.602;2023-03-14T09:46:38;5.20;;;3.58;;
65230;SDS011;51813;40.666;16.602;2023-03-14T09:49:13;4.72;;;3.30;;
65230;SDS011;51813;40.666;16.602;2023-03-14T09:51:44;5.78;;;3.40;;
65230;SDS011;51813;40.666;16.602;2023-03-14T09:57:20;6.00;;;3.13;;
65230;SDS011;51813;40.666;16.602;2023-03-14T09:59:49;5.60;;;3.03;;
65230;SDS011;51813;40.666;16.602;2023-03-14T10:02:21;4.78;;;2.80;;
65230;SDS011;51813;40.666;16.602;2023-03-14T10:04:49;4.57;;;3.00;;
65230;SDS011;51813;40.666;16.602;2023-03-14T10:07:17;4.10;;;2.80;;
65230;SDS011;51813;40.666;16.602;2023-03-14T10:09:47;5.40;;;2.90;;
65230;SDS011;51813;40.666;16.602;2023-03-14T10:12:15;4.97;;;2.80;;
65230;SDS011;51813;40.666;16.602;2023-03-14T10:14:46;5.82;;;2.65;;
65230;SDS011;51813;40.666;16.602;2023-03-14T10:17:15;4.22;;;2.60;;
65230;SDS011;51813;40.666;16.602;2023-03-14T10:19:52;5.30;;;2.60;;
65230;SDS011;51813;40.666;16.602;2023-03-14T10:22:18;4.43;;;2.65;;
65230;SDS011;51813;40.666;16.602;2023-03-14T10:24:45;4.38;;;2.60;;
65230;SDS011;51813;40.666;16.602;2023-03-14T10:27:20;4.80;;;2.53;;
65230;SDS011;51813;40.666;16.602;2023-03-14T10:30:04;4.60;;;2.80;;
65230;SDS011;51813;40.666;16.602;2023-03-14T10:32:38;5.18;;;2.42;;
65230;SDS011;51813;40.666;16.602;2023-03-14T10:40:38;4.60;;;2.38;;
65230;SDS011;51813;40.666;16.602;2023-03-14T10:43:06;4.07;;;2.47;;
65230;SDS011;51813;40.666;16.602;2023-03-14T10:45:39;3.90;;;2.38;;
65230;SDS011;51813;40.666;16.602;2023-03-14T10:50:40;3.50;;;2.50;;
65230;SDS011;51813;40.666;16.602;2023-03-14T10:53:16;5.75;;;2.53;;
65230;SDS011;51813;40.666;16.602;2023-03-14T10:55:43;3.83;;;2.20;;
65230;SDS011;51813;40.666;16.602;2023-03-14T10:58:20;3.75;;;2.50;;
65230;SDS011;51813;40.666;16.602;2023-03-14T11:03:52;5.18;;;2.40;;
65230;SDS011;51813;40.666;16.602;2023-03-14T11:07:38;3.60;;;2.33;;
65230;SDS011;51813;40.666;16.602;2023-03-14T11:10:01;3.28;;;2.00;;
65230;SDS011;51813;40.666;16.602;2023-03-14T11:13:02;3.25;;;2.10;;
65230;SDS011;51813;40.666;16.602;2023-03-14T11:15:34;3.53;;;2.10;;
65230;SDS011;51813;40.666;16.602;2023-03-14T11:26:42;3.28;;;2.28;;
65230;SDS011;51813;40.666;16.602;2023-03-14T11:31:58;4.05;;;2.00;;
65230;SDS011;51813;40.666;16.602;2023-03-14T11:37:07;3.13;;;2.00;;
65230;SDS011;51813;40.666;16.602;2023-03-14T11:39:47;3.50;;;2.20;;
65230;SDS011;51813;40.666;16.602;2023-03-14T11:42:31;4.03;;;2.08;;
65230;SDS011;51813;40.666;16.602;2023-03-14T11:44:58;3.70;;;1.90;;
65230;SDS011;51813;40.666;16.602;2023-03-14T11:52:50;3.17;;;1.80;;
65230;SDS011;51813;40.666;16.602;2023-03-14T11:55:22;3.22;;;1.70;;
65230;SDS011;51813;40.666;16.602;2023-03-14T11:57:53;4.72;;;2.03;;
65230;SDS011;51813;40.666;16.602;2023-03-14T12:00:24;3.47;;;2.03;;
65230;SDS011;51813;40.666;16.602;2023-03-14T12:13:13;2.60;;;1.70;;
65230;SDS011;51813;40.666;16.602;2023-03-14T12:15:42;2.78;;;1.70;;
65230;SDS011;51813;40.666;16.602;2023-03-14T12:18:33;2.58;;;1.70;;
65230;SDS011;51813;40.666;16.602;2023-03-14T12:21:04;3.17;;;1.80;;
65230;SDS011;51813;40.666;16.602;2023-03-14T12:23:41;3.42;;;1.85;;
65230;SDS011;51813;40.666;16.602;2023-03-14T12:28:39;3.10;;;1.73;;
65230;SDS011;51813;40.666;16.602;2023-03-14T12:34:30;3.10;;;1.70;;
65230;SDS011;51813;40.666;16.602;2023-03-14T12:36:51;2.60;;;1.70;;
65230;SDS011;51813;40.666;16.602;2023-03-14T12:47:51;4.03;;;1.90;;
65230;SDS011;51813;40.666;16.602;2023-03-14T12:50:21;2.65;;;1.70;;
65230;SDS011;51813;40.666;16.602;2023-03-14T12:56:11;2.80;;;1.70;;
65230;SDS011;51813;40.666;16.602;2023-03-14T13:01:23;3.05;;;1.48;;
65230;SDS011;51813;40.666;16.602;2023-03-14T13:03:51;4.18;;;1.67;;
65230;SDS011;51813;40.666;16.602;2023-03-14T13:12:08;2.72;;;1.58;;
65230;SDS011;51813;40.666;16.602;2023-03-14T13:14:36;3.58;;;1.80;;
65230;SDS011;51813;40.666;16.602;2023-03-14T13:17:11;2.15;;;1.33;;
65230;SDS011;51813;40.666;16.602;2023-03-14T13:19:38;3.47;;;1.80;;
65230;SDS011;51813;40.666;16.602;2023-03-14T13:22:14;2.63;;;1.58;;
65230;SDS011;51813;40.666;16.602;2023-03-14T13:24:44;2.95;;;1.70;;
65230;SDS011;51813;40.666;16.602;2023-03-14T13:27:19;3.53;;;2.00;;
65230;SDS011;51813;40.666;16.602;2023-03-14T13:29:48;3.08;;;1.80;;
65230;SDS011;51813;40.666;16.602;2023-03-14T13:34:50;2.88;;;1.45;;
65230;SDS011;51813;40.666;16.602;2023-03-14T13:37:19;2.90;;;1.58;;
65230;SDS011;51813;40.666;16.602;2023-03-14T13:39:50;3.97;;;1.85;;
65230;SDS011;51813;40.666;16.602;2023-03-14T13:42:21;4.22;;;1.80;;
65230;SDS011;51813;40.666;16.602;2023-03-14T13:44:51;3.10;;;1.80;;
65230;SDS011;51813;40.666;16.602;2023-03-14T13:47:18;3.10;;;1.70;;
65230;SDS011;51813;40.666;16.602;2023-03-14T13:49:46;3.72;;;2.08;;
65230;SDS011;51813;40.666;16.602;2023-03-14T13:54:53;3.97;;;1.70;;
65230;SDS011;51813;40.666;16.602;2023-03-14T13:57:19;4.50;;;1.83;;
65230;SDS011;51813;40.666;16.602;2023-03-14T13:59:45;3.95;;;2.05;;
65230;SDS011;51813;40.666;16.602;2023-03-14T14:02:31;3.08;;;1.75;;
65230;SDS011;51813;40.666;16.602;2023-03-14T14:04:58;3.22;;;1.77;;
65230;SDS011;51813;40.666;16.602;2023-03-14T14:07:25;3.05;;;1.80;;
65230;SDS011;51813;40.666;16.602;2023-03-14T14:09:51;2.70;;;1.58;;
65230;SDS011;51813;40.666;16.602;2023-03-14T14:15:13;5.10;;;2.15;;
65230;SDS011;51813;40.666;16.602;2023-03-14T14:17:46;3.70;;;1.77;;
65230;SDS011;51813;40.666;16.602;2023-03-14T14:22:44;3.10;;;1.83;;
65230;SDS011;51813;40.666;16.602;2023-03-14T14:25:14;4.32;;;1.70;;
65230;SDS011;51813;40.666;16.602;2023-03-14T14:27:43;5.95;;;1.95;;
65230;SDS011;51813;40.666;16.602;2023-03-14T14:32:42;5.80;;;2.10;;
65230;SDS011;51813;40.666;16.602;2023-03-14T14:35:09;3.80;;;1.65;;
65230;SDS011;51813;40.666;16.602;2023-03-14T14:37:46;4.07;;;1.92;;
65230;SDS011;51813;40.666;16.602;2023-03-14T14:40:17;3.42;;;1.70;;
65230;SDS011;51813;40.666;16.602;2023-03-14T14:42:45;5.53;;;2.03;;
65230;SDS011;51813;40.666;16.602;2023-03-14T14:45:30;3.42;;;1.70;;
65230;SDS011;51813;40.666;16.602;2023-03-14T14:48:04;4.55;;;1.80;;
65230;SDS011;51813;40.666;16.602;2023-03-14T14:50:38;6.72;;;2.30;;
65230;SDS011;51813;40.666;16.602;2023-03-14T14:53:26;4.53;;;1.90;;
65230;SDS011;51813;40.666;16.602;2023-03-14T14:56:03;5.75;;;2.65;;
65230;SDS011;51813;40.666;16.602;2023-03-14T14:58:57;5.35;;;2.00;;
65230;SDS011;51813;40.666;16.602;2023-03-14T15:01:26;4.80;;;2.03;;
65230;SDS011;51813;40.666;16.602;2023-03-14T15:04:01;3.55;;;2.13;;
65230;SDS011;51813;40.666;16.602;2023-03-14T15:06:35;4.03;;;1.75;;
65230;SDS011;51813;40.666;16.602;2023-03-14T15:09:01;5.10;;;2.42;;
65230;SDS011;51813;40.666;16.602;2023-03-14T15:11:27;3.70;;;2.00;;
65230;SDS011;51813;40.666;16.602;2023-03-14T15:13:52;5.05;;;2.33;;
65230;SDS011;51813;40.666;16.602;2023-03-14T15:16:23;4.50;;;2.20;;
65230;SDS011;51813;40.666;16.602;2023-03-14T15:18:57;3.85;;;2.28;;
65230;SDS011;51813;40.666;16.602;2023-03-14T15:21:24;5.43;;;2.10;;
65230;SDS011;51813;40.666;16.602;2023-03-14T15:23:51;4.45;;;2.20;;
65230;SDS011;51813;40.666;16.602;2023-03-14T15:26:18;5.05;;;2.25;;
65230;SDS011;51813;40.666;16.602;2023-03-14T15:28:45;8.15;;;2.90;;
65230;SDS011;51813;40.666;16.602;2023-03-14T15:31:12;4.10;;;1.92;;
65230;SDS011;51813;40.666;16.602;2023-03-14T15:33:39;5.78;;;2.28;;
65230;SDS011;51813;40.666;16.602;2023-03-14T15:36:10;5.35;;;2.30;;
65230;SDS011;51813;40.666;16.602;2023-03-14T15:38:44;5.00;;;2.33;;
65230;SDS011;51813;40.666;16.602;2023-03-14T15:41:09;3.70;;;2.25;;
65230;SDS011;51813;40.666;16.602;2023-03-14T15:43:35;4.82;;;2.33;;
65230;SDS011;51813;40.666;16.602;2023-03-14T15:46:01;3.70;;;2.22;;
65230;SDS011;51813;40.666;16.602;2023-03-14T15:48:26;5.97;;;2.47;;
65230;SDS011;51813;40.666;16.602;2023-03-14T15:50:52;6.07;;;2.22;;
65230;SDS011;51813;40.666;16.602;2023-03-14T15:53:17;4.35;;;2.58;;
65230;SDS011;51813;40.666;16.602;2023-03-14T15:55:43;6.57;;;2.63;;
65230;SDS011;51813;40.666;16.602;2023-03-14T15:58:16;5.78;;;2.22;;
65230;SDS011;51813;40.666;16.602;2023-03-14T16:00:43;4.90;;;2.40;;
65230;SDS011;51813;40.666;16.602;2023-03-14T16:03:09;7.75;;;2.90;;
65230;SDS011;51813;40.666;16.602;2023-03-14T16:05:36;5.65;;;2.58;;
65230;SDS011;51813;40.666;16.602;2023-03-14T16:08:01;7.95;;;3.42;;
65230;SDS011;51813;40.666;16.602;2023-03-14T16:10:28;5.40;;;2.30;;
65230;SDS011;51813;40.666;16.602;2023-03-14T16:12:53;5.07;;;2.53;;
65230;SDS011;51813;40.666;16.602;2023-03-14T16:15:19;4.70;;;2.63;;